Caroline Guidry — WDB2770 — position and weather

sailwx.info

Track history (hours):
 
Tides and Currents Weather Stations Pressure Air Temp Water Temp Dewpoint Dewpoint Depression Visibility Wind Speed Wind Dir Waves Ship Positions

Caroline Guidry

Owner: DANIELLE MARINE TOWING II LLC, CUT OFF, LA. More information available from US FCC via Universal Licensing System and Coast Guard Vessel Documentation Center.

Last reported at 2018-Jun-14 00:10 UTC. Time now 2018-Jun-18 23:18 UTC.
Position N 29°42' W 095°01'.

Length 16 m; draft 2.3 m.

Type: . MMSI: 366879570.

Date/timePositionNaut miles runAvg speedWind from/ knotsBaromVisibWave heightAir tempDewpointWater temp
2018-Jun-14 00:10N 29°42' W 095°01'2 5.9
2018-Jun-13 23:53N 29°42' W 094°59'3 5.2
2018-Jun-13 23:21N 29°39' W 094°58'19 6.0
2018-Jun-13 20:08N 29°22' W 094°47'1 6.2
2018-Jun-13 19:58N 29°23' W 094°46'25 5.2
2018-Jun-13 15:07N 29°36' W 094°22'2 5.5
2018-Jun-13 14:50N 29°37' W 094°20'2 5.6
2018-Jun-13 14:30N 29°38' W 094°18'3 5.6
2018-Jun-13 14:00N 29°39' W 094°16'3 5.8
2018-Jun-13 13:30N 29°41' W 094°13'3 5.9
2018-Jun-13 13:00N 29°41' W 094°09'3 6.1
2018-Jun-13 12:30N 29°43' W 094°07'3 6.4
2018-Jun-13 12:01N 29°45' W 094°04'3 6.5
2018-Jun-13 11:31N 29°47' W 094°01'3 5.0
2018-Jun-13 11:00N 29°49' W 093°59'2 4.6
2018-Jun-13 10:30N 29°51' W 093°57'2 4.3
2018-Jun-13 10:00N 29°53' W 093°56'2 4.8
2018-Jun-13 09:30N 29°54' W 093°54'2 4.7
2018-Jun-13 09:00N 29°56' W 093°52'2 4.5
2018-Jun-13 08:30N 29°58' W 093°51'2 4.3
2018-Jun-13 08:00N 29°59' W 093°54'2 3.2
2018-Jun-13 07:31N 29°59' W 093°56'0 0.9
2018-Jun-13 07:00N 29°60' W 093°55'0 0.1
2018-Jun-13 06:30N 29°60' W 093°55'0 0.1
2018-Jun-13 06:00N 29°60' W 093°55'2 3.7
2018-Jun-13 05:30N 29°59' W 093°53'2 4.2
2018-Jun-13 05:00N 29°58' W 093°51'0 0.0
2018-Jun-13 04:31N 29°58' W 093°51'0 0.0
2018-Jun-13 04:01N 29°58' W 093°51'0 0.0
2018-Jun-13 03:31N 29°58' W 093°51'0 0.0
2018-Jun-13 03:00N 29°58' W 093°51'0 0.0
2018-Jun-13 02:30N 29°58' W 093°51'0 0.0
2018-Jun-13 02:00N 29°58' W 093°51'1 1.0
2018-Jun-13 01:30N 29°58' W 093°51'4 7.1
2018-Jun-13 01:00N 29°59' W 093°55'0 0.8
2018-Jun-13 00:30N 29°60' W 093°55'0 0.0
2018-Jun-13 00:00N 29°60' W 093°55'1 2.2
2018-Jun-12 23:30N 29°60' W 093°56'2 3.6
2018-Jun-12 23:00N 30°01' W 093°58'2 3.5
2018-Jun-12 22:30N 30°01' W 094°00'2 3.7
2018-Jun-12 22:00N 30°02' W 094°02'2 3.6
2018-Jun-12 21:30N 30°03' W 094°02'1 2.5
2018-Jun-12 21:00N 30°04' W 094°03'1 2.8
2018-Jun-12 20:30N 30°03' W 094°02'3 5.4
2018-Jun-12 20:00N 30°01' W 094°00'3 5.5
2018-Jun-12 19:31N 30°00' W 093°57'2 3.7
2018-Jun-12 19:00N 29°60' W 093°55'0 0.0
2018-Jun-12 18:31N 29°60' W 093°55'1 1.4
2018-Jun-12 18:01N 29°59' W 093°54'3 5.7
2018-Jun-12 17:30N 29°58' W 093°51'3 5.4
2018-Jun-12 17:00N 29°59' W 093°48'3 5.8
2018-Jun-12 16:30N 30°01' W 093°46'3 5.4
2018-Jun-12 16:00N 30°03' W 093°44'2 4.1
2018-Jun-12 15:31N 30°05' W 093°44'0 0.8
2018-Jun-12 14:58N 30°05' W 093°44'0 0.0
2018-Jun-12 13:28N 30°05' W 093°44'0 0.0
2018-Jun-12 12:19N 30°05' W 093°44'0 0.0
2018-Jun-12 12:00N 30°05' W 093°44'0 0.0
2018-Jun-12 11:30N 30°05' W 093°44'0 0.0
2018-Jun-12 11:00N 30°05' W 093°44'0 0.0
2018-Jun-12 10:30N 30°05' W 093°44'0 0.0
2018-Jun-12 10:00N 30°05' W 093°44'0 0.0
2018-Jun-12 09:30N 30°05' W 093°44'0 0.0
2018-Jun-12 09:00N 30°05' W 093°44'0 0.0
2018-Jun-12 08:29N 30°05' W 093°44'0 0.0
2018-Jun-12 08:00N 30°05' W 093°44'0 0.0
2018-Jun-12 07:30N 30°05' W 093°44'0 0.0
2018-Jun-12 07:00N 30°05' W 093°44'0 0.0
2018-Jun-12 06:30N 30°05' W 093°44'0 0.0
2018-Jun-12 06:00N 30°05' W 093°44'0 0.0
2018-Jun-12 05:30N 30°05' W 093°44'0 0.0
2018-Jun-12 04:54N 30°05' W 093°44'0 0.0
2018-Jun-12 04:27N 30°05' W 093°44'0 0.0
2018-Jun-12 03:59N 30°05' W 093°44'0 0.0
2018-Jun-12 03:30N 30°05' W 093°44'0 0.0
2018-Jun-12 02:59N 30°05' W 093°44'0 0.0
2018-Jun-12 02:30N 30°05' W 093°44'0 0.0
2018-Jun-12 01:46N 30°05' W 093°44'0 0.0
2018-Jun-12 01:27N 30°05' W 093°44'0 0.0
2018-Jun-12 01:00N 30°05' W 093°44'0 0.0
2018-Jun-12 00:29N 30°05' W 093°44'0 0.0
2018-Jun-12 00:00N 30°05' W 093°44'0 0.0
2018-Jun-11 23:29N 30°05' W 093°44'0 0.0
2018-Jun-11 23:00N 30°05' W 093°44'0 0.0
2018-Jun-11 22:29N 30°05' W 093°44'0 0.0
2018-Jun-11 21:56N 30°05' W 093°44'0 0.0
2018-Jun-11 21:27N 30°05' W 093°44'0 0.0
2018-Jun-11 21:00N 30°05' W 093°44'0 0.0
2018-Jun-11 20:27N 30°05' W 093°44'0 0.0
2018-Jun-11 19:59N 30°05' W 093°44'0 0.0
2018-Jun-11 19:29N 30°05' W 093°44'0 0.0
2018-Jun-11 19:00N 30°05' W 093°44'0 0.0
2018-Jun-11 18:29N 30°05' W 093°44'0 0.0
2018-Jun-11 18:00N 30°05' W 093°44'0 0.0
2018-Jun-11 17:30N 30°05' W 093°44'0 0.0
2018-Jun-11 17:00N 30°05' W 093°44'0 0.0
2018-Jun-11 16:27N 30°05' W 093°44'0 0.0
2018-Jun-11 16:00N 30°05' W 093°44'0 0.0
2018-Jun-11 15:29N 30°05' W 093°44'0 0.0
2018-Jun-11 13:59N 30°05' W 093°44'0 0.0
2018-Jun-11 13:30N 30°05' W 093°44'0 0.0
2018-Jun-11 12:56N 30°05' W 093°44'0 0.0
2018-Jun-11 12:30N 30°05' W 093°44'0 0.0
2018-Jun-11 12:00N 30°05' W 093°44'0 0.0
2018-Jun-11 11:30N 30°05' W 093°44'0 0.0
2018-Jun-11 11:00N 30°05' W 093°44'0 0.0
2018-Jun-11 10:30N 30°05' W 093°44'0 0.0
2018-Jun-11 10:00N 30°05' W 093°44'0 0.0
2018-Jun-11 09:30N 30°05' W 093°44'0 0.0
2018-Jun-11 09:00N 30°05' W 093°44'0 0.0
2018-Jun-11 08:24N 30°05' W 093°44'0 0.0
2018-Jun-11 07:59N 30°05' W 093°44'0 0.0
2018-Jun-11 07:28N 30°05' W 093°44'0 0.0
2018-Jun-11 07:00N 30°05' W 093°44'0 0.0
2018-Jun-11 06:28N 30°05' W 093°44'0 0.0
2018-Jun-11 05:56N 30°05' W 093°44'0 0.0
2018-Jun-11 05:28N 30°05' W 093°44'0 0.0
2018-Jun-11 05:00N 30°05' W 093°44'0 0.0
2018-Jun-11 04:26N 30°05' W 093°44'0 0.0
2018-Jun-11 03:58N 30°05' W 093°44'0 0.0
2018-Jun-11 03:29N 30°05' W 093°44'0 0.0
2018-Jun-11 02:59N 30°05' W 093°44'0 0.0
2018-Jun-11 02:27N 30°05' W 093°44'0 0.0
2018-Jun-11 01:59N 30°05' W 093°44'0 0.0
2018-Jun-11 01:28N 30°05' W 093°44'0 0.0
2018-Jun-11 00:51N 30°05' W 093°44'0 0.0
2018-Jun-11 00:30N 30°05' W 093°44'0 0.0
2018-Jun-10 23:10N 30°05' W 093°44'0 0.0
2018-Jun-10 19:06N 30°05' W 093°44'0 0.0
2018-Jun-10 19:00N 30°05' W 093°44'0 0.0
2018-Jun-10 17:54N 30°05' W 093°44'0 0.0
2018-Jun-10 17:30N 30°05' W 093°44'0 0.0
2018-Jun-10 17:00N 30°05' W 093°44'0 0.0
2018-Jun-10 16:30N 30°05' W 093°44'0 0.0
2018-Jun-10 15:17N 30°05' W 093°44'0 0.0
2018-Jun-10 14:57N 30°05' W 093°44'0 0.0
2018-Jun-10 14:23N 30°05' W 093°44'0 0.0
2018-Jun-10 13:30N 30°05' W 093°44'0 0.0
2018-Jun-10 12:52N 30°05' W 093°44'0 0.0
2018-Jun-10 12:30N 30°05' W 093°44'0 0.0
2018-Jun-10 12:00N 30°05' W 093°44'0 0.0
2018-Jun-10 11:29N 30°05' W 093°44'0 0.0
2018-Jun-10 10:59N 30°05' W 093°44'0 0.0
2018-Jun-10 10:29N 30°05' W 093°44'0 0.0
2018-Jun-10 10:00N 30°05' W 093°44'0 0.0
2018-Jun-10 09:27N 30°05' W 093°44'0 0.0
2018-Jun-10 09:00N 30°05' W 093°44'0 0.0
2018-Jun-10 08:30N 30°05' W 093°44'0 0.0
2018-Jun-10 08:00N 30°05' W 093°44'0 0.0
2018-Jun-10 07:30N 30°05' W 093°44'0 0.0
2018-Jun-10 07:00N 30°05' W 093°44'0 0.0
2018-Jun-10 06:30N 30°05' W 093°44'0 0.0
2018-Jun-10 05:54N 30°05' W 093°44'0 0.0
2018-Jun-10 05:29N 30°05' W 093°44'0 0.0
2018-Jun-10 05:00N 30°05' W 093°44'0 0.0
2018-Jun-10 04:30N 30°05' W 093°44'0 0.0
2018-Jun-10 04:00N 30°05' W 093°44'0 0.0
2018-Jun-10 03:30N 30°05' W 093°44'0 0.0
2018-Jun-10 02:52N 30°05' W 093°44'0 0.0
2018-Jun-10 02:30N 30°05' W 093°44'0 0.0
2018-Jun-10 01:21N 30°05' W 093°44'0 0.0
2018-Jun-10 01:00N 30°05' W 093°44'0 0.0
2018-Jun-10 00:30N 30°05' W 093°44'0 0.0
2018-Jun-09 23:59N 30°05' W 093°44'0 0.0
2018-Jun-09 23:29N 30°05' W 093°44'0 0.0
2018-Jun-09 23:00N 30°05' W 093°44'0 0.0
2018-Jun-09 22:30N 30°05' W 093°44'0 0.0
2018-Jun-09 22:00N 30°05' W 093°44'0 0.0
2018-Jun-09 21:30N 30°05' W 093°44'0 0.0
2018-Jun-09 21:00N 30°05' W 093°44'0 0.0
2018-Jun-09 20:30N 30°05' W 093°44'0 0.0
2018-Jun-09 19:53N 30°05' W 093°44'0 0.0
2018-Jun-09 19:30N 30°05' W 093°44'0 0.0
2018-Jun-09 18:59N 30°05' W 093°44'0 0.0
2018-Jun-09 18:29N 30°05' W 093°44'0 0.0
2018-Jun-09 17:58N 30°05' W 093°44'0 0.0
2018-Jun-09 17:30N 30°05' W 093°44'0 0.0
2018-Jun-09 16:58N 30°05' W 093°44'0 0.0
2018-Jun-09 16:23N 30°05' W 093°44'0 0.0
2018-Jun-09 16:00N 30°05' W 093°44'0 0.0
2018-Jun-09 15:30N 30°05' W 093°44'0 0.0
2018-Jun-09 14:30N 30°05' W 093°44'0 0.0
2018-Jun-09 14:01N 30°05' W 093°44'0 0.0
2018-Jun-09 13:29N 30°05' W 093°44'0 0.0
2018-Jun-09 12:59N 30°05' W 093°44'1 1.5
2018-Jun-09 12:30N 30°05' W 093°43'3 6.3
2018-Jun-09 12:00N 30°02' W 093°44'3 6.9
2018-Jun-09 11:30N 29°59' W 093°47'3 6.2
2018-Jun-09 11:00N 29°58' W 093°51'3 5.4
2018-Jun-09 10:30N 29°56' W 093°52'3 6.9
2018-Jun-09 10:00N 29°53' W 093°55'3 6.7
2018-Jun-09 09:30N 29°51' W 093°57'2 4.6
2018-Jun-09 09:01N 29°49' W 093°59'2 3.2
2018-Jun-09 08:30N 29°48' W 094°00'3 6.5
2018-Jun-09 08:01N 29°46' W 094°03'3 6.4
2018-Jun-09 07:30N 29°44' W 094°06'3 6.5
2018-Jun-09 07:01N 29°42' W 094°09'3 5.9
2018-Jun-09 06:30N 29°41' W 094°12'3 5.8
2018-Jun-09 06:00N 29°39' W 094°15'3 5.9
2018-Jun-09 05:30N 29°38' W 094°18'3 6.0
2018-Jun-09 05:00N 29°37' W 094°21'3 5.7
2018-Jun-09 04:26N 29°36' W 094°25'2 5.2
2018-Jun-09 03:59N 29°34' W 094°26'9 5.9
2018-Jun-09 02:30N 29°29' W 094°35'4 6.6
2018-Jun-09 01:54N 29°28' W 094°39'3 5.9
2018-Jun-09 01:23N 29°26' W 094°42'2 5.5
2018-Jun-09 00:56N 29°25' W 094°44'19 4.6
2018-Jun-08 20:53N 29°39' W 094°58'3 7.1
2018-Jun-08 20:30N 29°41' W 094°59'  
2018-Jun-06 08:21N 29°48' W 095°04'0 0.0
2018-Jun-06 04:52N 29°48' W 095°04'0 0.0
2018-Jun-06 02:42N 29°48' W 095°04'5 0.2
2018-Jun-05 04:48N 29°44' W 095°08'3 0.2
2018-Jun-04 13:30N 29°46' W 095°06'0 0.0
2018-Jun-04 11:29N 29°46' W 095°06'  
Track history (hours):
 
Tides and Currents Weather Stations Pressure Air Temp Water Temp Dewpoint Dewpoint Depression Visibility Wind Speed Wind Dir Waves Ship Positions

Caroline Guidry

Owner: DANIELLE MARINE TOWING II LLC, CUT OFF, LA. More information available from US FCC via Universal Licensing System and Coast Guard Vessel Documentation Center.

Last reported at 2018-Jun-14 00:10 UTC. Time now 2018-Jun-18 23:18 UTC.
Position N 29°42' W 095°01'.

Length 16 m; draft 2.3 m.

Type: . MMSI: 366879570.

Date/timePositionNaut miles runAvg speedWind from/ knotsBaromVisibWave heightAir tempDewpointWater temp
2018-Jun-14 00:10N 29°42' W 095°01'2 5.9
2018-Jun-13 23:53N 29°42' W 094°59'3 5.2
2018-Jun-13 23:21N 29°39' W 094°58'19 6.0
2018-Jun-13 20:08N 29°22' W 094°47'1 6.2
2018-Jun-13 19:58N 29°23' W 094°46'25 5.2
2018-Jun-13 15:07N 29°36' W 094°22'2 5.5
2018-Jun-13 14:50N 29°37' W 094°20'2 5.6
2018-Jun-13 14:30N 29°38' W 094°18'3 5.6
2018-Jun-13 14:00N 29°39' W 094°16'3 5.8
2018-Jun-13 13:30N 29°41' W 094°13'3 5.9
2018-Jun-13 13:00N 29°41' W 094°09'3 6.1
2018-Jun-13 12:30N 29°43' W 094°07'3 6.4
2018-Jun-13 12:01N 29°45' W 094°04'3 6.5
2018-Jun-13 11:31N 29°47' W 094°01'3 5.0
2018-Jun-13 11:00N 29°49' W 093°59'2 4.6
2018-Jun-13 10:30N 29°51' W 093°57'2 4.3
2018-Jun-13 10:00N 29°53' W 093°56'2 4.8
2018-Jun-13 09:30N 29°54' W 093°54'2 4.7
2018-Jun-13 09:00N 29°56' W 093°52'2 4.5
2018-Jun-13 08:30N 29°58' W 093°51'2 4.3
2018-Jun-13 08:00N 29°59' W 093°54'2 3.2
2018-Jun-13 07:31N 29°59' W 093°56'0 0.9
2018-Jun-13 07:00N 29°60' W 093°55'0 0.1
2018-Jun-13 06:30N 29°60' W 093°55'0 0.1
2018-Jun-13 06:00N 29°60' W 093°55'2 3.7
2018-Jun-13 05:30N 29°59' W 093°53'2 4.2
2018-Jun-13 05:00N 29°58' W 093°51'0 0.0
2018-Jun-13 04:31N 29°58' W 093°51'0 0.0
2018-Jun-13 04:01N 29°58' W 093°51'0 0.0
2018-Jun-13 03:31N 29°58' W 093°51'0 0.0
2018-Jun-13 03:00N 29°58' W 093°51'0 0.0
2018-Jun-13 02:30N 29°58' W 093°51'0 0.0
2018-Jun-13 02:00N 29°58' W 093°51'1 1.0
2018-Jun-13 01:30N 29°58' W 093°51'4 7.1
2018-Jun-13 01:00N 29°59' W 093°55'0 0.8
2018-Jun-13 00:30N 29°60' W 093°55'0 0.0
2018-Jun-13 00:00N 29°60' W 093°55'1 2.2
2018-Jun-12 23:30N 29°60' W 093°56'2 3.6
2018-Jun-12 23:00N 30°01' W 093°58'2 3.5
2018-Jun-12 22:30N 30°01' W 094°00'2 3.7
2018-Jun-12 22:00N 30°02' W 094°02'2 3.6
2018-Jun-12 21:30N 30°03' W 094°02'1 2.5
2018-Jun-12 21:00N 30°04' W 094°03'1 2.8
2018-Jun-12 20:30N 30°03' W 094°02'3 5.4
2018-Jun-12 20:00N 30°01' W 094°00'3 5.5
2018-Jun-12 19:31N 30°00' W 093°57'2 3.7
2018-Jun-12 19:00N 29°60' W 093°55'0 0.0
2018-Jun-12 18:31N 29°60' W 093°55'1 1.4
2018-Jun-12 18:01N 29°59' W 093°54'3 5.7
2018-Jun-12 17:30N 29°58' W 093°51'3 5.4
2018-Jun-12 17:00N 29°59' W 093°48'3 5.8
2018-Jun-12 16:30N 30°01' W 093°46'3 5.4
2018-Jun-12 16:00N 30°03' W 093°44'2 4.1
2018-Jun-12 15:31N 30°05' W 093°44'0 0.8
2018-Jun-12 14:58N 30°05' W 093°44'0 0.0
2018-Jun-12 13:28N 30°05' W 093°44'0 0.0
2018-Jun-12 12:19N 30°05' W 093°44'0 0.0
2018-Jun-12 12:00N 30°05' W 093°44'0 0.0
2018-Jun-12 11:30N 30°05' W 093°44'0 0.0
2018-Jun-12 11:00N 30°05' W 093°44'0 0.0
2018-Jun-12 10:30N 30°05' W 093°44'0 0.0
2018-Jun-12 10:00N 30°05' W 093°44'0 0.0
2018-Jun-12 09:30N 30°05' W 093°44'0 0.0
2018-Jun-12 09:00N 30°05' W 093°44'0 0.0
2018-Jun-12 08:29N 30°05' W 093°44'0 0.0
2018-Jun-12 08:00N 30°05' W 093°44'0 0.0
2018-Jun-12 07:30N 30°05' W 093°44'0 0.0
2018-Jun-12 07:00N 30°05' W 093°44'0 0.0
2018-Jun-12 06:30N 30°05' W 093°44'0 0.0
2018-Jun-12 06:00N 30°05' W 093°44'0 0.0
2018-Jun-12 05:30N 30°05' W 093°44'0 0.0
2018-Jun-12 04:54N 30°05' W 093°44'0 0.0
2018-Jun-12 04:27N 30°05' W 093°44'0 0.0
2018-Jun-12 03:59N 30°05' W 093°44'0 0.0
2018-Jun-12 03:30N 30°05' W 093°44'0 0.0
2018-Jun-12 02:59N 30°05' W 093°44'0 0.0
2018-Jun-12 02:30N 30°05' W 093°44'0 0.0
2018-Jun-12 01:46N 30°05' W 093°44'0 0.0
2018-Jun-12 01:27N 30°05' W 093°44'0 0.0
2018-Jun-12 01:00N 30°05' W 093°44'0 0.0
2018-Jun-12 00:29N 30°05' W 093°44'0 0.0
2018-Jun-12 00:00N 30°05' W 093°44'0 0.0
2018-Jun-11 23:29N 30°05' W 093°44'0 0.0
2018-Jun-11 23:00N 30°05' W 093°44'0 0.0
2018-Jun-11 22:29N 30°05' W 093°44'0 0.0
2018-Jun-11 21:56N 30°05' W 093°44'0 0.0
2018-Jun-11 21:27N 30°05' W 093°44'0 0.0
2018-Jun-11 21:00N 30°05' W 093°44'0 0.0
2018-Jun-11 20:27N 30°05' W 093°44'0 0.0
2018-Jun-11 19:59N 30°05' W 093°44'0 0.0
2018-Jun-11 19:29N 30°05' W 093°44'0 0.0
2018-Jun-11 19:00N 30°05' W 093°44'0 0.0
2018-Jun-11 18:29N 30°05' W 093°44'0 0.0
2018-Jun-11 18:00N 30°05' W 093°44'0 0.0
2018-Jun-11 17:30N 30°05' W 093°44'0 0.0
2018-Jun-11 17:00N 30°05' W 093°44'0 0.0
2018-Jun-11 16:27N 30°05' W 093°44'0 0.0
2018-Jun-11 16:00N 30°05' W 093°44'0 0.0
2018-Jun-11 15:29N 30°05' W 093°44'0 0.0
2018-Jun-11 13:59N 30°05' W 093°44'0 0.0
2018-Jun-11 13:30N 30°05' W 093°44'0 0.0
2018-Jun-11 12:56N 30°05' W 093°44'0 0.0
2018-Jun-11 12:30N 30°05' W 093°44'0 0.0
2018-Jun-11 12:00N 30°05' W 093°44'0 0.0
2018-Jun-11 11:30N 30°05' W 093°44'0 0.0
2018-Jun-11 11:00N 30°05' W 093°44'0 0.0
2018-Jun-11 10:30N 30°05' W 093°44'0 0.0
2018-Jun-11 10:00N 30°05' W 093°44'0 0.0
2018-Jun-11 09:30N 30°05' W 093°44'0 0.0
2018-Jun-11 09:00N 30°05' W 093°44'0 0.0
2018-Jun-11 08:24N 30°05' W 093°44'0 0.0
2018-Jun-11 07:59N 30°05' W 093°44'0 0.0
2018-Jun-11 07:28N 30°05' W 093°44'0 0.0
2018-Jun-11 07:00N 30°05' W 093°44'0 0.0
2018-Jun-11 06:28N 30°05' W 093°44'0 0.0
2018-Jun-11 05:56N 30°05' W 093°44'0 0.0
2018-Jun-11 05:28N 30°05' W 093°44'0 0.0
2018-Jun-11 05:00N 30°05' W 093°44'0 0.0
2018-Jun-11 04:26N 30°05' W 093°44'0 0.0
2018-Jun-11 03:58N 30°05' W 093°44'0 0.0
2018-Jun-11 03:29N 30°05' W 093°44'0 0.0
2018-Jun-11 02:59N 30°05' W 093°44'0 0.0
2018-Jun-11 02:27N 30°05' W 093°44'0 0.0
2018-Jun-11 01:59N 30°05' W 093°44'0 0.0
2018-Jun-11 01:28N 30°05' W 093°44'0 0.0
2018-Jun-11 00:51N 30°05' W 093°44'0 0.0
2018-Jun-11 00:30N 30°05' W 093°44'0 0.0
2018-Jun-10 23:10N 30°05' W 093°44'0 0.0
2018-Jun-10 19:06N 30°05' W 093°44'0 0.0
2018-Jun-10 19:00N 30°05' W 093°44'0 0.0
2018-Jun-10 17:54N 30°05' W 093°44'0 0.0
2018-Jun-10 17:30N 30°05' W 093°44'0 0.0
2018-Jun-10 17:00N 30°05' W 093°44'0 0.0
2018-Jun-10 16:30N 30°05' W 093°44'0 0.0
2018-Jun-10 15:17N 30°05' W 093°44'0 0.0
2018-Jun-10 14:57N 30°05' W 093°44'0 0.0
2018-Jun-10 14:23N 30°05' W 093°44'0 0.0
2018-Jun-10 13:30N 30°05' W 093°44'0 0.0
2018-Jun-10 12:52N 30°05' W 093°44'0 0.0
2018-Jun-10 12:30N 30°05' W 093°44'0 0.0
2018-Jun-10 12:00N 30°05' W 093°44'0 0.0
2018-Jun-10 11:29N 30°05' W 093°44'0 0.0
2018-Jun-10 10:59N 30°05' W 093°44'0 0.0
2018-Jun-10 10:29N 30°05' W 093°44'0 0.0
2018-Jun-10 10:00N 30°05' W 093°44'0 0.0
2018-Jun-10 09:27N 30°05' W 093°44'0 0.0
2018-Jun-10 09:00N 30°05' W 093°44'0 0.0
2018-Jun-10 08:30N 30°05' W 093°44'0 0.0
2018-Jun-10 08:00N 30°05' W 093°44'0 0.0
2018-Jun-10 07:30N 30°05' W 093°44'0 0.0
2018-Jun-10 07:00N 30°05' W 093°44'0 0.0
2018-Jun-10 06:30N 30°05' W 093°44'0 0.0
2018-Jun-10 05:54N 30°05' W 093°44'0 0.0
2018-Jun-10 05:29N 30°05' W 093°44'0 0.0
2018-Jun-10 05:00N 30°05' W 093°44'0 0.0
2018-Jun-10 04:30N 30°05' W 093°44'0 0.0
2018-Jun-10 04:00N 30°05' W 093°44'0 0.0
2018-Jun-10 03:30N 30°05' W 093°44'0 0.0
2018-Jun-10 02:52N 30°05' W 093°44'0 0.0
2018-Jun-10 02:30N 30°05' W 093°44'0 0.0
2018-Jun-10 01:21N 30°05' W 093°44'0 0.0
2018-Jun-10 01:00N 30°05' W 093°44'0 0.0
2018-Jun-10 00:30N 30°05' W 093°44'0 0.0
2018-Jun-09 23:59N 30°05' W 093°44'0 0.0
2018-Jun-09 23:29N 30°05' W 093°44'0 0.0
2018-Jun-09 23:00N 30°05' W 093°44'0 0.0
2018-Jun-09 22:30N 30°05' W 093°44'0 0.0
2018-Jun-09 22:00N 30°05' W 093°44'0 0.0
2018-Jun-09 21:30N 30°05' W 093°44'0 0.0
2018-Jun-09 21:00N 30°05' W 093°44'0 0.0
2018-Jun-09 20:30N 30°05' W 093°44'0 0.0
2018-Jun-09 19:53N 30°05' W 093°44'0 0.0
2018-Jun-09 19:30N 30°05' W 093°44'0 0.0
2018-Jun-09 18:59N 30°05' W 093°44'0 0.0
2018-Jun-09 18:29N 30°05' W 093°44'0 0.0
2018-Jun-09 17:58N 30°05' W 093°44'0 0.0
2018-Jun-09 17:30N 30°05' W 093°44'0 0.0
2018-Jun-09 16:58N 30°05' W 093°44'0 0.0
2018-Jun-09 16:23N 30°05' W 093°44'0 0.0
2018-Jun-09 16:00N 30°05' W 093°44'0 0.0
2018-Jun-09 15:30N 30°05' W 093°44'0 0.0
2018-Jun-09 14:30N 30°05' W 093°44'0 0.0
2018-Jun-09 14:01N 30°05' W 093°44'0 0.0
2018-Jun-09 13:29N 30°05' W 093°44'0 0.0
2018-Jun-09 12:59N 30°05' W 093°44'1 1.5
2018-Jun-09 12:30N 30°05' W 093°43'3 6.3
2018-Jun-09 12:00N 30°02' W 093°44'3 6.9
2018-Jun-09 11:30N 29°59' W 093°47'3 6.2
2018-Jun-09 11:00N 29°58' W 093°51'3 5.4
2018-Jun-09 10:30N 29°56' W 093°52'3 6.9
2018-Jun-09 10:00N 29°53' W 093°55'3 6.7
2018-Jun-09 09:30N 29°51' W 093°57'2 4.6
2018-Jun-09 09:01N 29°49' W 093°59'2 3.2
2018-Jun-09 08:30N 29°48' W 094°00'3 6.5
2018-Jun-09 08:01N 29°46' W 094°03'3 6.4
2018-Jun-09 07:30N 29°44' W 094°06'3 6.5
2018-Jun-09 07:01N 29°42' W 094°09'3 5.9
2018-Jun-09 06:30N 29°41' W 094°12'3 5.8
2018-Jun-09 06:00N 29°39' W 094°15'3 5.9
2018-Jun-09 05:30N 29°38' W 094°18'3 6.0
2018-Jun-09 05:00N 29°37' W 094°21'3 5.7
2018-Jun-09 04:26N 29°36' W 094°25'2 5.2
2018-Jun-09 03:59N 29°34' W 094°26'9 5.9
2018-Jun-09 02:30N 29°29' W 094°35'4 6.6
2018-Jun-09 01:54N 29°28' W 094°39'3 5.9
2018-Jun-09 01:23N 29°26' W 094°42'2 5.5
2018-Jun-09 00:56N 29°25' W 094°44'19 4.6
2018-Jun-08 20:53N 29°39' W 094°58'3 7.1
2018-Jun-08 20:30N 29°41' W 094°59'  
2018-Jun-06 08:21N 29°48' W 095°04'0 0.0
2018-Jun-06 04:52N 29°48' W 095°04'0 0.0
2018-Jun-06 02:42N 29°48' W 095°04'5 0.2
2018-Jun-05 04:48N 29°44' W 095°08'3 0.2
2018-Jun-04 13:30N 29°46' W 095°06'0 0.0
2018-Jun-04 11:29N 29°46' W 095°06'  

Dump ship's entire track history